Latest Weather Observations for Low Isles

IDQ60801

Issued at 6:05 pm EST Tuesday 23 September 2014 (issued every 30 minutes, with the page automatically refreshed every 10 minutes)

About weather observations | Map of weather stations | Latest weather observations for QLD | Other Formats
Station Details ID: 031037 Name: LOW ISLES LIGHTHOUSE Lat: -16.38 Lon: 145.56 Height: 2.9 m
Data from the previous 72 hours. | See also: Recent months at Low Isles
Date/Time
EST
Temp
°C
App
Temp
°C
Dew
Point
Rel
Hum
%
Delta-T
°C
Wind Press
QNH
hPa
Press
MSL
hPa
Rain
since 9 am
mm
Dir
 
Spd
km/h
Gust
km/h
Spd
kts
Gust
kts
23/06:00pm 24.9 23.2 20.6 77 2.8 SE 30 35 16 19 1016.6 1016.5 0.0
23/05:30pm 25.2 23.8 20.5 75 3.1 SE 28 35 15 19 1016.4 - 0.0
23/05:00pm 25.6 24.2 20.4 73 3.4 SE 28 33 15 18 1016.3 - 0.0
23/04:30pm 25.9 24.0 20.2 71 3.7 SE 30 35 16 19 1016.1 - 0.0
23/04:00pm 26.6 24.7 20.2 68 4.2 SE 30 35 16 19 1016.0 - 0.0
23/03:30pm 27.0 25.2 20.3 66 4.4 SE 30 33 16 18 1015.9 - 0.0
23/03:00pm 27.0 25.5 20.3 66 4.4 SE 28 33 15 18 1015.9 1015.8 0.0
23/02:30pm 27.8 26.4 21.1 67 4.4 SE 30 35 16 19 1016.1 - 0.0
23/02:00pm 27.2 26.0 20.8 68 4.2 SE 28 33 15 18 1016.2 - 0.0
23/01:30pm 27.9 26.6 20.7 65 4.8 SE 28 33 15 18 1016.4 - 0.0
23/01:00pm 28.0 27.3 20.3 63 5.1 SE 24 30 13 16 1016.9 - 0.0
23/12:30pm 28.5 27.8 21.0 64 5.0 SE 26 32 14 17 1017.2 - 0.0
23/12:00pm 28.7 27.3 20.4 60 5.5 ESE 28 33 15 18 1017.7 1017.6 0.0
23/11:30am 27.9 27.3 20.5 64 4.9 ESE 24 32 13 17 1018.2 - 0.0
23/11:00am 27.5 25.7 19.6 62 5.1 ESE 28 33 15 18 1018.5 - 0.0
23/10:30am 27.6 26.3 19.9 63 5.0 ESE 26 32 14 17 1018.6 - 0.0
23/10:00am 27.3 26.4 19.9 64 4.8 ESE 24 32 13 17 1018.8 - 0.0
23/09:30am 26.9 25.7 20.0 66 4.5 ESE 26 35 14 19 1018.7 - 0.0
23/09:00am 26.5 24.9 20.1 68 4.2 ESE 28 35 15 19 1018.6 1018.5 0.0
23/08:30am 26.0 24.9 20.3 71 3.7 ESE 26 33 14 18 1018.4 - 0.0
23/08:00am 25.2 23.7 20.2 74 3.3 ESE 28 33 15 18 1018.0 - 0.0
23/07:30am 24.4 22.8 20.1 77 2.8 ESE 28 35 15 19 1017.4 - 0.0
23/07:00am 24.3 22.4 20.2 78 2.7 ESE 30 37 16 20 1016.9 - 0.0
23/06:30am 23.9 22.8 20.2 80 2.4 ESE 26 35 14 19 1016.5 - 0.0
23/06:00am 23.8 22.3 20.3 81 2.3 ESE 28 33 15 18 1016.1 1016.0 0.0
23/05:30am 23.7 22.5 20.0 80 2.4 ESE 26 35 14 19 1015.8 - 0.0
23/05:00am 24.0 22.4 20.1 79 2.5 ESE 28 33 15 18 1015.5 - 0.0
23/04:30am 23.6 21.7 20.1 81 2.3 E 30 37 16 20 1015.3 - 0.0
23/04:00am 23.8 23.2 20.5 82 2.1 E 24 33 13 18 1015.3 - 0.0
23/03:30am 23.7 22.3 20.4 82 2.1 E 28 33 15 18 1015.3 - 0.0
23/03:00am 23.7 22.2 20.2 81 2.3 ESE 28 35 15 19 1015.2 1015.1 0.0
23/02:30am 23.8 22.3 20.3 81 2.3 ESE 28 35 15 19 1015.2 - 0.0
23/02:00am 23.9 22.0 20.2 80 2.4 ESE 30 39 16 21 1015.2 - 0.0
23/01:30am 23.9 21.6 20.2 80 2.4 ESE 32 37 17 20 1015.5 - 0.0
23/01:00am 24.1 22.7 20.4 80 2.4 ESE 28 37 15 20 1015.9 - 0.0
23/12:30am 24.2 22.4 20.3 79 2.5 ESE 30 39 16 21 1016.0 - 0.0
23/12:00am 24.2 23.1 20.3 79 2.5 ESE 26 33 14 18 1016.5 1016.4 0.0
 
Date/Time
EST
Temp
°C
App
Temp
°C
Dew
Point
Rel
Hum
%
Delta-T
°C
Wind Press
QNH
hPa
Press
MSL
hPa
Rain
since 9 am
mm
Dir
 
Spd
km/h
Gust
km/h
Spd
kts
Gust
kts
22/11:30pm 24.2 23.8 20.9 82 2.2 ESE 24 30 13 16 1016.7 - 0.0
22/11:00pm 24.2 24.1 20.7 81 2.3 ESE 22 30 12 16 1017.0 - 0.0
22/10:30pm 24.4 24.0 20.9 81 2.3 ESE 24 30 13 16 1017.1 - 0.0
22/10:00pm 24.1 23.1 20.4 80 2.4 ESE 26 30 14 16 1017.1 - 0.0
22/09:30pm 24.2 23.7 20.7 81 2.3 ESE 24 30 13 16 1017.0 - 0.0
22/09:00pm 24.2 23.6 20.5 80 2.4 ESE 24 30 13 16 1016.7 1016.6 0.0
22/08:30pm 24.1 23.3 20.0 78 2.6 ESE 24 32 13 17 1016.5 - 0.0
22/08:00pm 24.3 24.1 20.6 80 2.4 ESE 22 30 12 16 1016.2 - 0.0
22/07:30pm 24.4 24.6 20.5 79 2.5 SE 20 24 11 13 1015.8 - 0.0
22/07:00pm 24.3 23.9 20.2 78 2.7 ESE 22 30 12 16 1015.6 - 0.0
22/06:30pm 24.4 24.0 20.1 77 2.8 ESE 22 26 12 14 1015.2 - 0.0
22/06:00pm 24.6 24.8 20.1 76 2.9 ESE 19 22 10 12 1014.9 1014.8 0.0
22/05:30pm 24.9 24.6 19.5 72 3.5 ESE 20 26 11 14 1014.8 - 0.0
22/05:00pm 25.5 25.2 19.6 70 3.8 ESE 20 24 11 13 1014.4 - 0.0
22/04:30pm 25.9 25.1 19.3 67 4.2 ESE 22 28 12 15 1014.3 - 0.0
22/04:00pm 26.4 26.1 19.5 66 4.5 ESE 20 26 11 14 1014.2 - 0.0
22/03:30pm 26.9 26.3 19.8 65 4.6 ESE 22 26 12 14 1014.1 - 0.0
22/03:00pm 27.5 26.3 19.3 61 5.3 ESE 24 28 13 15 1014.2 1014.1 0.0
22/02:30pm 27.7 26.8 19.8 62 5.1 ESE 24 30 13 16 1014.5 - 0.0
22/02:00pm 27.8 27.2 19.8 61 5.2 SE 22 28 12 15 1014.8 - 0.0
22/01:30pm 27.9 27.2 19.4 60 5.5 SE 22 28 12 15 1015.1 - 0.0
22/01:00pm 27.9 27.0 19.1 58 5.7 SE 22 28 12 15 1015.6 - 0.0
22/12:30pm 27.8 26.6 18.5 57 5.9 SE 22 26 12 14 1016.0 - 0.0
22/12:00pm 27.8 27.0 19.3 60 5.5 SE 22 28 12 15 1016.5 1016.4 0.0
22/11:30am 27.6 26.3 19.1 59 5.5 SE 24 28 13 15 1017.1 - 0.0
22/11:00am 26.9 26.2 19.5 64 4.8 SE 22 26 12 14 1017.6 - 0.0
22/10:30am 26.0 25.5 19.9 69 4.0 SSE 22 26 12 14 1017.8 - 0.0
22/10:00am 25.0 24.0 18.9 69 3.9 SSE 22 24 12 13 1017.9 - 0.0
22/09:30am 24.4 23.6 19.2 73 3.3 S 22 26 12 14 1017.8 - 0.0
22/09:00am 25.4 24.3 18.6 66 4.3 SE 22 - 12 - - 1017.8 0.0
22/08:30am 25.2 24.4 18.4 66 4.3 SE 20 26 11 14 1017.7 - 0.0
22/08:00am 25.3 24.8 19.0 68 4.0 ESE 20 24 11 13 1017.4 - 0.0
22/07:30am 24.0 23.4 18.4 71 3.5 ESE 19 22 10 12 1017.1 - 0.0
22/07:00am 23.7 22.9 18.1 71 3.5 ESE 19 24 10 13 1016.8 - 0.0
22/06:30am 23.4 22.3 18.7 75 3.0 ESE 22 28 12 15 1016.3 - 0.0
22/06:00am 23.1 22.3 18.4 75 3.0 ESE 20 26 11 14 1016.0 1015.9 0.0
22/05:30am 23.2 21.6 18.3 74 3.1 ESE 24 30 13 16 1015.7 - 0.0
22/05:00am 23.3 21.6 18.2 73 3.2 ESE 24 30 13 16 1015.5 - 0.0
22/04:30am 23.2 22.3 18.3 74 3.1 ESE 20 28 11 15 1015.2 - 0.0
22/04:00am 23.3 21.7 18.4 74 3.1 ESE 24 30 13 16 1015.1 - 0.0
22/03:30am 23.3 21.1 18.6 75 3.0 ESE 28 33 15 18 1015.2 - 0.0
22/03:00am 23.3 21.4 18.6 75 3.0 ESE 26 33 14 18 1015.3 1015.2 0.0
22/02:30am 23.5 21.3 17.9 71 3.5 ESE 26 32 14 17 1015.8 - 0.0
22/02:00am 23.6 21.8 18.7 74 3.1 ESE 26 32 14 17 1015.9 - 0.0
22/01:30am 23.8 22.4 18.0 70 3.6 ESE 22 30 12 16 1016.3 - 0.0
22/01:00am 23.7 22.2 18.6 73 3.2 ESE 24 32 13 17 1016.6 - 0.0
22/12:30am 23.8 23.2 18.9 74 3.1 ESE 20 26 11 14 1016.9 - 0.0
22/12:00am 23.9 21.9 18.3 71 3.5 ESE 26 33 14 18 1017.2 1017.1 0.0
 
Date/Time
EST
Temp
°C
App
Temp
°C
Dew
Point
Rel
Hum
%
Delta-T
°C
Wind Press
QNH
hPa
Press
MSL
hPa
Rain
since 9 am
mm
Dir
 
Spd
km/h
Gust
km/h
Spd
kts
Gust
kts
21/11:30pm 23.9 21.2 17.6 68 3.9 ESE 28 37 15 20 1017.4 - 0.0
21/11:00pm 24.0 21.7 19.3 75 3.0 SE 30 35 16 19 1017.6 - 0.0
21/10:30pm 24.1 21.1 18.7 72 3.4 ESE 32 39 17 21 1017.7 - 0.0
21/10:00pm 24.1 21.3 19.0 73 3.2 SE 32 39 17 21 1017.7 - 0.0
21/09:30pm 24.2 21.6 19.5 75 3.0 SE 32 39 17 21 1017.6 - 0.0
21/09:00pm 24.1 23.2 19.8 77 2.8 SSE 24 26 13 14 1017.4 1017.3 0.0
21/08:30pm 24.1 23.0 20.2 79 2.5 SSE 26 30 14 16 1017.1 - 0.0
21/08:00pm 24.1 22.4 19.8 77 2.8 SE 28 32 15 17 1016.9 - 0.0
21/07:30pm 24.2 22.6 20.1 78 2.7 SE 28 33 15 18 1016.7 - 0.0
21/07:00pm 24.2 23.0 20.1 78 2.7 SE 26 32 14 17 1016.4 - 0.0
21/06:30pm 24.3 23.1 20.0 77 2.8 SE 26 32 14 17 1016.1 - 0.0
21/06:00pm 24.4 23.0 19.7 75 3.0 SE 26 30 14 16 1015.9 1015.8 0.0
21/05:30pm 24.7 23.0 19.8 74 3.2 SE 28 30 15 16 1015.7 - 0.0
21/05:00pm 24.9 23.5 19.7 73 3.4 SE 26 30 14 16 1015.3 - 0.0
21/04:30pm 25.3 24.7 19.7 71 3.6 SE 22 26 12 14 1015.3 - 0.0
21/04:00pm 25.7 25.5 19.8 70 3.8 SE 20 24 11 13 1015.2 - 0.0
21/03:30pm 26.0 25.9 19.9 69 4.0 SSE 20 22 11 12 1015.1 - 0.0
21/03:00pm 27.2 26.5 19.5 62 5.0 SSE 22 26 12 14 1015.4 1015.3 0.0
21/02:30pm 27.7 27.4 20.3 64 4.9 SE 22 26 12 14 1015.7 - 0.0
21/02:00pm 27.4 27.1 19.5 62 5.1 SE 20 26 11 14 1015.9 - 0.0
21/01:30pm 27.5 27.5 20.1 64 4.8 SE 20 24 11 13 1016.2 - 0.0
21/01:00pm 27.2 27.1 20.0 64 4.7 SE 20 26 11 14 1016.5 - 0.0
21/12:30pm 27.3 27.6 20.4 66 4.5 SE 19 20 10 11 1017.1 - 0.0
21/12:00pm 26.2 25.5 19.6 67 4.3 SSE 22 26 12 14 1017.6 1017.5 0.0
21/11:30am 25.8 25.5 20.4 72 3.5 SSE 22 28 12 15 1018.0 - 0.0
21/11:00am 25.3 24.3 19.7 71 3.6 SSE 24 30 13 16 1018.4 - 0.0
21/10:30am 25.1 23.7 19.7 72 3.5 SSE 26 30 14 16 1018.7 - 0.0
21/10:00am 24.3 22.9 19.6 75 3.0 SSE 26 30 14 16 1018.8 - 0.0
21/09:30am 24.6 23.7 19.9 75 3.0 S 24 28 13 15 1018.7 - 0.0
21/09:00am 24.3 23.4 19.8 76 2.9 SSE 24 26 13 14 1018.7 1018.6 0.0
21/08:30am 23.9 22.9 19.6 77 2.8 SSE 24 30 13 16 1018.4 - 0.0
21/08:00am 23.7 22.7 19.6 78 2.6 SSE 24 28 13 15 1017.8 - 0.0
21/07:30am 23.5 22.1 19.6 79 2.5 SSE 26 28 14 15 1017.3 - 0.0
21/07:00am 23.4 21.9 19.5 79 2.5 SSE 26 30 14 16 1016.8 - 0.0
21/06:30am 23.2 22.2 19.6 80 2.3 SSE 24 30 13 16 1016.3 - 0.0
21/06:00am 23.2 21.9 19.8 81 2.2 S 26 28 14 15 1016.0 1015.9 0.0
21/05:30am 23.1 22.2 19.9 82 2.1 SSE 24 28 13 15 1015.8 - 0.0
21/05:00am 23.0 22.0 19.6 81 2.2 SSE 24 28 13 15 1015.4 - 0.0
21/04:30am 22.9 21.4 19.5 81 2.2 SSE 26 30 14 16 1015.1 - 0.0
21/04:00am 23.1 22.1 19.7 81 2.2 SSE 24 28 13 15 1015.0 - 0.0
21/03:30am 23.0 22.0 19.6 81 2.2 SSE 24 26 13 14 1015.1 - 0.0
21/03:00am 22.9 22.7 19.7 82 2.0 SSE 20 24 11 13 1015.2 1015.1 0.0
21/02:30am 23.0 22.9 19.6 81 2.2 SSE 19 22 10 12 1015.2 - 0.0
21/02:00am 23.0 22.8 19.4 80 2.3 SSE 19 22 10 12 1015.5 - 0.0
21/01:30am 23.1 23.0 19.5 80 2.3 S 19 20 10 11 1015.7 - 0.0
21/01:00am 23.2 23.1 19.6 80 2.3 S 19 20 10 11 1016.1 - 0.0
21/12:30am 23.5 24.1 19.4 78 2.6 SE 15 17 8 9 1016.4 - 0.0
21/12:00am 23.4 24.2 19.1 77 2.7 ESE 13 17 7 9 1016.8 1016.7 0.0
 
Date/Time
EST
Temp
°C
App
Temp
°C
Dew
Point
Rel
Hum
%
Delta-T
°C
Wind Press
QNH
hPa
Press
MSL
hPa
Rain
since 9 am
mm
Dir
 
Spd
km/h
Gust
km/h
Spd
kts
Gust
kts
20/11:30pm 23.5 24.8 19.4 78 2.6 SE 11 15 6 8 1016.9 - 0.0
20/11:00pm 23.5 24.4 19.2 77 2.7 SE 13 15 7 8 1017.0 - 0.0
20/10:30pm 23.5 24.8 19.4 78 2.6 SE 11 13 6 7 1017.1 - 0.0
20/10:00pm 23.5 24.5 19.4 78 2.6 ESE 13 15 7 8 1017.2 - 0.0
20/09:30pm 23.6 24.1 19.3 77 2.7 SE 15 17 8 9 1017.0 - 0.0
20/09:00pm 23.7 24.2 19.2 76 2.9 SE 15 19 8 10 1016.9 1016.8 0.0
20/08:30pm 23.9 24.1 19.4 76 2.9 SE 17 19 9 10 1016.6 - 0.0
20/08:00pm 23.9 24.6 19.6 77 2.8 SE 15 19 8 10 1016.5 - 0.0
20/07:30pm 24.0 24.3 19.7 77 2.8 SE 17 19 9 10 1016.2 - 0.0
20/07:00pm 24.0 24.6 19.5 76 2.9 ESE 15 20 8 11 1015.9 - 0.0
20/06:30pm 24.0 24.5 19.3 75 3.0 ESE 15 19 8 10 1015.5 - 0.0

Other Formats:

Comma delimited format used in spreadsheet applications
http://www.bom.gov.au/fwo/IDQ60801/IDQ60801.94285.axf

JavaScript Object Notation format (JSON) in row-major order
http://www.bom.gov.au/fwo/IDQ60801/IDQ60801.94285.json